Aeroporto :
LOGIN :

Iscrizione | Disclaimer

   EN    FR    IT 

 










Sommario :    VFR   VFR Marginale   IFR   IFR Intensivo   IFR Molto Intensivo
Visibilità : 
Base nubi : 
>= 8 km
>= 3000ft
5 / 8 km
1000 / 3000 ft
1500m / 5 km
500 / 1000 ft
800 / 1500m
200 / 500 ft
< 800m
< 200 ft
Simboli :   Temporali  Nebbia  Neve Forte  Precipitazioni Forti  Vento > 20 kt
SIGMETs :   Varie  Temporali  Ghiacco  Turbolenza  Onda orograficha  Ceneri Vulcaniche






- Altitudine del aeroporto : 53 ft
- Codice IATA : HAM


EDDH - Hamburg

ULTIMO METAR :
  • 171550Z 22017KT 9999 SCT045 10/01 Q1007 TEMPO 22020G35KT SHRA BKN015CB

METARs OBSOLETI :
  • 171520Z 22017KT 9999 FEW045 10/01 Q1007 TEMPO 22020G35KT
  • 171450Z 22020KT 9999 FEW045 10/02 Q1007 TEMPO 22020G35KT
  • 171420Z 23017KT 9999 FEW043 10/02 Q1008 TEMPO 23020G35KT
  • 171350Z 23021KT 9999 FEW043 10/02 Q1008 TEMPO 23020G35KT
  • 171320Z 23022KT 9999 SCT039 10/02 Q1008 TEMPO 23020G35KT

TAF TAF EDDH
Valido dal 17 a 12 ore il 18 a 18 ore UTC


171100Z 1712/1818 23020G35KT CAVOK
TEMPO 1712/1715 24025G45KT
BECMG 1715/1716 23015G30KT
PROB40
TEMPO 1715/1818 25025G40KT 2500 SHRAGS BKN012CB



MetMap, La meteo Aeronautica in un colpo d'occhio ! - Copyright ORBIFLY Dicembre 2007 - Disclaimer

ORBIFLY MET'MAP TEAM :

Programmazione e sviluppo : Alexandra Zaïnal
Concezione : Baudouin d'Aumeries
Aiuto per la programmazione : Marc-Olivier Méhu
Supporto tecnico e logistico : Manuel Goepfert
Aiuto per la traduzione : Arnaldo La Scala

Contatto : metmap@orbifly.com




FONTI E CREDITI :

   NOAA